Time;durP1;ratioP1;P1;durP2;ratioP2;P2;SDS_P1;SDS_P2;PMS_P1;PMS_P2;Temp;Humidity;BMP_temperature;BMP_pressure;BME280_temperature;BME280_humidity;BME280_pressure;Samples;Min_cycle;Max_cycle;Signal;HPM_P1;HPM_P2
2021/11/11 00:00:35;;;;;;;57.83;53.27;;;;;;;12.94;100.00;102557.03;2018672;71;32807;-74
2021/11/11 00:06:19;;;;;;;57.30;52.40;;;;;;;12.89;100.00;102555.57;2000845;71;33270;-85
2021/11/11 00:12:04;;;;;;;56.30;51.30;;;;;;;12.84;100.00;102556.34;2009676;71;33283;-84
2021/11/11 00:17:51;;;;;;;56.60;51.60;;;;;;;12.84;100.00;102559.68;2015191;71;33309;-83
2021/11/11 00:23:36;;;;;;;57.87;52.47;;;;;;;13.06;100.00;102563.31;2004023;71;33359;-75
2021/11/11 00:29:19;;;;;;;57.30;52.20;;;;;;;13.01;100.00;102557.67;2013126;71;33305;-83
2021/11/11 00:35:04;;;;;;;58.00;52.90;;;;;;;13.07;100.00;102567.26;2011788;71;33221;-83
2021/11/11 00:40:50;;;;;;;59.30;54.00;;;;;;;13.08;100.00;102572.29;1995433;71;32761;-80
2021/11/11 00:46:37;;;;;;;59.87;54.53;;;;;;;13.06;100.00;102578.66;2001027;71;33269;-82
2021/11/11 00:52:23;;;;;;;61.57;56.07;;;;;;;13.06;100.00;102584.25;1952044;72;33307;-82
2021/11/11 00:58:04;;;;;;;60.20;54.90;;;;;;;13.06;100.00;102580.91;1941677;73;32986;-82
2021/11/11 01:03:49;;;;;;;61.03;55.60;;;;;;;13.04;100.00;102580.34;2008126;71;32829;-77
2021/11/11 01:09:37;;;;;;;59.60;54.30;;;;;;;13.12;100.00;102574.33;1995465;71;32887;-81
2021/11/11 01:15:30;;;;;;;59.07;53.77;;;;;;;13.06;100.00;102568.91;2006549;71;32865;-82
2021/11/11 01:21:17;;;;;;;57.53;52.23;;;;;;;13.03;100.00;102556.88;2004682;71;33287;-81
2021/11/11 01:27:01;;;;;;;57.17;52.13;;;;;;;13.06;100.00;102556.34;2006392;71;32744;-84
2021/11/11 01:32:48;;;;;;;56.40;51.40;;;;;;;13.00;100.00;102572.20;1940096;73;33072;-81
2021/11/11 01:38:31;;;;;;;58.63;53.67;;;;;;;13.03;100.00;102575.01;2004163;71;33267;-77
2021/11/11 01:44:17;;;;;;;55.93;50.87;;;;;;;13.01;100.00;102574.41;2016804;71;33416;-76
2021/11/11 01:50:04;;;;;;;57.43;52.63;;;;;;;12.99;100.00;102571.91;2009511;71;33378;-83
2021/11/11 01:55:50;;;;;;;60.43;55.03;;;;;;;12.99;100.00;102562.69;2009699;71;33400;-83
2021/11/11 02:01:35;;;;;;;58.53;53.43;;;;;;;12.86;100.00;102554.16;1991618;71;32737;-76
2021/11/11 02:07:22;;;;;;;56.27;51.23;;;;;;;12.86;100.00;102549.13;2048927;69;33385;-84
2021/11/11 02:13:08;;;;;;;57.30;52.10;;;;;;;12.85;100.00;102552.46;2018544;71;33301;-84
2021/11/11 02:18:53;;;;;;;59.27;54.27;;;;;;;12.71;100.00;102551.99;1997023;71;32808;-77
2021/11/11 02:24:39;;;;;;;58.13;53.13;;;;;;;12.79;100.00;102540.97;2013365;71;32874;-83
2021/11/11 02:30:26;;;;;;;56.70;51.83;;;;;;;12.75;100.00;102538.37;2000340;71;33042;-77
2021/11/11 02:36:10;;;;;;;58.43;53.53;;;;;;;12.72;100.00;102531.92;1995202;71;33268;-76
2021/11/11 02:41:53;;;;;;;56.83;52.17;;;;;;;12.70;100.00;102534.99;2010002;71;32902;-76
2021/11/11 02:47:37;;;;;;;57.33;52.50;;;;;;;12.57;100.00;102533.12;1998929;71;32750;-83
2021/11/11 02:53:23;;;;;;;55.70;51.07;;;;;;;12.40;100.00;102521.18;2014816;71;32809;-76
2021/11/11 02:59:07;;;;;;;54.03;49.43;;;;;;;12.41;100.00;102518.69;2013228;71;32817;-84
2021/11/11 03:04:51;;;;;;;57.60;52.60;;;;;;;12.45;100.00;102520.68;2014819;71;32808;-76
2021/11/11 03:10:40;;;;;;;55.50;50.67;;;;;;;12.33;100.00;102514.37;2015133;71;32839;-81
2021/11/11 03:16:25;;;;;;;53.23;48.73;;;;;;;12.25;100.00;102518.45;2011122;71;32899;-83
2021/11/11 03:22:16;;;;;;;53.77;49.20;;;;;;;12.27;100.00;102516.81;2010175;71;32752;-81
2021/11/11 03:28:01;;;;;;;54.37;49.77;;;;;;;12.28;100.00;102513.75;2002551;71;33123;-76
2021/11/11 03:33:45;;;;;;;53.47;48.97;;;;;;;12.21;100.00;102511.70;2003798;71;32875;-76
2021/11/11 03:39:30;;;;;;;51.43;47.03;;;;;;;12.15;100.00;102515.50;2009871;71;32849;-76
2021/11/11 03:45:14;;;;;;;55.77;50.70;;;;;;;12.13;100.00;102512.14;1997246;71;32827;-83
2021/11/11 03:50:58;;;;;;;52.43;47.97;;;;;;;12.09;100.00;102505.94;2017005;71;33338;-76
2021/11/11 03:56:48;;;;;;;50.93;46.83;;;;;;;11.99;100.00;102514.13;2004006;71;32824;-82
2021/11/11 04:02:35;;;;;;;48.90;45.00;;;;;;;11.99;100.00;102502.98;2002789;71;32765;-82
2021/11/11 04:08:20;;;;;;;49.43;45.33;;;;;;;11.78;100.00;102504.06;2010151;71;33235;-83
2021/11/11 04:14:05;;;;;;;49.20;45.03;;;;;;;11.77;100.00;102508.48;2000435;71;32915;-84
2021/11/11 04:19:52;;;;;;;50.00;46.00;;;;;;;11.62;100.00;102509.59;1999373;71;33441;-82
2021/11/11 04:25:45;;;;;;;49.80;45.67;;;;;;;11.50;100.00;102510.21;1991638;71;32787;-82
2021/11/11 04:31:27;;;;;;;50.80;46.70;;;;;;;11.52;100.00;102512.18;1994744;71;32915;-84
2021/11/11 04:37:26;;;;;;;50.80;46.50;;;;;;;11.34;100.00;102516.03;1940554;73;33064;-84
2021/11/11 04:43:35;;;;;;;48.13;44.23;;;;;;;11.20;100.00;102518.30;2009484;71;33389;-77
2021/11/11 04:49:33;;;;;;;48.53;44.43;;;;;;;11.27;100.00;102519.52;2004098;71;33362;-76
2021/11/11 05:01:18;;;;;;;49.63;45.43;;;;;;;11.07;100.00;102516.35;1974273;71;39739;-76
2021/11/11 05:07:00;;;;;;;47.90;43.80;;;;;;;10.76;100.00;102512.09;2014781;71;32833;-83
2021/11/11 05:12:45;;;;;;;48.00;44.00;;;;;;;10.70;100.00;102518.09;2014747;71;33605;-85
2021/11/11 05:18:29;;;;;;;54.35;49.90;;;;;;;10.52;100.00;102520.20;1984371;71;28386;-77
2021/11/11 05:24:13;;;;;;;50.90;46.63;;;;;;;10.50;100.00;102522.67;2014979;71;32821;-83
2021/11/11 05:30:03;;;;;;;50.50;46.27;;;;;;;10.71;100.00;102533.68;2013261;71;32845;-82
2021/11/11 05:35:47;;;;;;;51.70;47.40;;;;;;;10.52;100.00;102529.39;1917545;73;33014;-82
2021/11/11 05:41:32;;;;;;;52.07;47.70;;;;;;;10.54;100.00;102536.06;2003918;71;33328;-84
2021/11/11 05:47:19;;;;;;;51.20;46.67;;;;;;;10.75;100.00;102539.59;2001295;71;33254;-82
2021/11/11 05:53:06;;;;;;;53.50;48.83;;;;;;;10.84;100.00;102533.41;1995401;71;32775;-82
2021/11/11 05:58:49;;;;;;;54.20;49.17;;;;;;;10.91;100.00;102540.23;2002330;71;32913;-83
2021/11/11 06:04:35;;;;;;;54.83;49.33;;;;;;;10.97;100.00;102533.67;1991910;71;32762;-82
2021/11/11 06:10:23;;;;;;;52.97;47.93;;;;;;;11.03;100.00;102531.84;2015055;71;32814;-82
2021/11/11 06:16:10;;;;;;;52.00;47.07;;;;;;;11.04;100.00;102533.55;2000868;71;32835;-82
2021/11/11 06:21:54;;;;;;;53.27;47.60;;;;;;;11.10;100.00;102533.38;2016606;71;32827;-83
2021/11/11 06:27:39;;;;;;;52.23;47.07;;;;;;;11.09;100.00;102538.64;2000659;71;32868;-76
2021/11/11 06:33:25;;;;;;;53.97;48.63;;;;;;;11.08;100.00;102538.33;2005621;71;32895;-84
2021/11/11 06:39:12;;;;;;;55.10;49.37;;;;;;;11.12;100.00;102540.95;2008027;71;33439;-80
2021/11/11 06:44:57;;;;;;;53.43;47.77;;;;;;;11.09;100.00;102535.01;2011996;71;33224;-75
2021/11/11 06:50:45;;;;;;;54.00;48.17;;;;;;;11.09;100.00;102537.25;2004128;71;33334;-82
2021/11/11 06:56:30;;;;;;;55.10;48.60;;;;;;;11.02;100.00;102542.13;2015034;71;32923;-81
2021/11/11 07:02:13;;;;;;;54.97;49.40;;;;;;;11.04;100.00;102550.23;2008109;71;32750;-80
2021/11/11 07:08:00;;;;;;;56.13;50.50;;;;;;;11.03;100.00;102544.36;2010249;71;32760;-81
2021/11/11 07:13:43;;;;;;;52.27;46.93;;;;;;;11.01;100.00;102557.11;1990803;71;32755;-81
2021/11/11 07:19:27;;;;;;;49.30;44.37;;;;;;;10.95;100.00;102569.23;2014992;71;32903;-82
2021/11/11 07:25:13;;;;;;;53.17;47.77;;;;;;;11.10;100.00;102576.49;2005693;71;32922;-75
2021/11/11 07:30:58;;;;;;;53.53;48.33;;;;;;;10.91;100.00;102582.76;2014589;71;32947;-73
2021/11/11 07:36:45;;;;;;;51.77;46.27;;;;;;;11.03;100.00;102588.85;2006329;71;32826;-81
2021/11/11 07:42:29;;;;;;;53.73;48.43;;;;;;;11.02;100.00;102599.13;1991544;71;33265;-74
2021/11/11 07:48:13;;;;;;;51.50;46.30;;;;;;;11.01;100.00;102607.70;1995267;71;32753;-74
2021/11/11 07:54:00;;;;;;;50.90;46.53;;;;;;;11.09;100.00;102607.32;2004545;71;32756;-85
2021/11/11 07:59:44;;;;;;;52.70;47.87;;;;;;;11.01;100.00;102616.05;2004390;71;32867;-86
2021/11/11 08:05:28;;;;;;;52.90;47.17;;;;;;;11.06;100.00;102620.33;2003950;71;33335;-74
2021/11/11 08:11:13;;;;;;;49.10;44.53;;;;;;;11.02;100.00;102626.94;2011461;71;32826;-72
2021/11/11 08:16:57;;;;;;;49.80;45.27;;;;;;;10.88;100.00;102626.89;2009948;71;33300;-72
2021/11/11 08:22:41;;;;;;;49.10;44.80;;;;;;;10.92;100.00;102621.14;2008087;71;32771;-72
2021/11/11 08:28:26;;;;;;;49.13;44.27;;;;;;;11.02;100.00;102615.81;1991589;71;32842;-72
2021/11/11 08:34:10;;;;;;;51.10;46.27;;;;;;;11.19;100.00;102625.08;2008028;71;33419;-73
2021/11/11 08:39:54;;;;;;;52.67;47.30;;;;;;;11.32;100.00;102623.41;1995588;70;33309;-75
2021/11/11 08:45:38;;;;;;;53.03;48.03;;;;;;;11.27;100.00;102630.25;2016930;71;32827;-75
2021/11/11 08:51:22;;;;;;;53.97;49.50;;;;;;;11.15;100.00;102621.10;2006426;71;32768;-73
2021/11/11 08:57:07;;;;;;;54.97;50.00;;;;;;;11.14;100.00;102634.70;2004676;71;32760;-75
2021/11/11 09:02:54;;;;;;;55.60;50.80;;;;;;;11.22;100.00;102629.30;2011770;71;33272;-76
2021/11/11 09:08:39;;;;;;;55.63;50.53;;;;;;;11.33;100.00;102628.44;1995043;71;33372;-75
2021/11/11 09:14:23;;;;;;;58.13;53.20;;;;;;;11.42;100.00;102621.39;2011339;71;32813;-72
2021/11/11 09:20:10;;;;;;;56.87;51.90;;;;;;;11.27;100.00;102621.06;2009820;71;32739;-72
2021/11/11 09:25:55;;;;;;;60.13;54.87;;;;;;;11.07;100.00;102615.92;2003955;71;33360;-72
2021/11/11 09:31:40;;;;;;;56.30;51.40;;;;;;;11.13;100.00;102620.49;2006161;71;32763;-71
2021/11/11 09:37:23;;;;;;;57.93;52.53;;;;;;;11.08;100.00;102620.95;1995261;71;32818;-75
2021/11/11 09:43:08;;;;;;;55.87;50.17;;;;;;;11.13;100.00;102617.70;2013083;71;33355;-70
2021/11/11 09:48:54;;;;;;;54.90;49.53;;;;;;;11.22;100.00;102613.45;2000581;71;32760;-79
2021/11/11 10:00:42;;;;;;;56.40;51.00;;;;;;;11.62;100.00;102610.64;2005842;71;32816;-74
2021/11/11 10:06:29;;;;;;;55.40;49.87;;;;;;;11.81;100.00;102612.67;1991390;71;32789;-73
2021/11/11 10:12:21;;;;;;;54.93;50.00;;;;;;;12.02;100.00;102613.37;2013655;71;32835;-71
2021/11/11 10:18:05;;;;;;;54.33;49.23;;;;;;;12.28;100.00;102613.22;2004049;71;32827;-76
2021/11/11 10:23:50;;;;;;;62.00;56.17;;;;;;;12.37;100.00;102603.88;1974171;71;32933;-75
2021/11/11 10:29:40;;;;;;;65.23;59.83;;;;;;;12.23;100.00;102604.80;1998538;71;32896;-76
2021/11/11 10:35:29;;;;;;;57.90;52.83;;;;;;;12.40;100.00;102607.03;2009571;71;32808;-76
2021/11/11 10:41:15;;;;;;;63.60;58.53;;;;;;;12.42;100.00;102603.42;1995213;71;33259;-75
2021/11/11 10:47:02;;;;;;;59.10;54.40;;;;;;;12.57;100.00;102609.80;2007879;71;32879;-75
2021/11/11 10:52:50;;;;;;;64.17;59.57;;;;;;;12.82;100.00;102610.70;1998611;71;32818;-74
2021/11/11 10:58:39;;;;;;;65.10;60.27;;;;;;;12.92;100.00;102601.91;2002443;71;32729;-76
2021/11/11 11:04:28;;;;;;;61.83;57.07;;;;;;;13.05;100.00;102602.11;1997041;71;33247;-75
2021/11/11 11:10:31;;;;;;;52.70;48.50;;;;;;;13.19;100.00;102597.84;2013872;71;33105;-75
2021/11/11 11:16:22;;;;;;;55.17;50.87;;;;;;;13.26;100.00;102596.27;1997064;71;32730;-75
2021/11/11 11:22:08;;;;;;;56.43;52.10;;;;;;;13.38;100.00;102585.25;2016800;71;33317;-76
2021/11/11 11:27:51;;;;;;;53.17;49.20;;;;;;;13.70;100.00;102579.70;2018482;71;32906;-75
2021/11/11 11:33:46;;;;;;;52.07;48.07;;;;;;;13.68;100.00;102566.03;1991462;71;33467;-74
2021/11/11 11:39:34;;;;;;;50.23;46.33;;;;;;;13.91;100.00;102563.97;2005704;70;33303;-75
2021/11/11 11:45:23;;;;;;;52.17;48.07;;;;;;;13.99;100.00;102558.73;2014933;71;33327;-75
2021/11/11 11:51:09;;;;;;;49.87;46.00;;;;;;;14.26;100.00;102553.09;2009626;71;33388;-74
2021/11/11 11:56:58;;;;;;;50.70;46.90;;;;;;;14.31;100.00;102545.30;2000672;71;32855;-76
2021/11/11 12:02:51;;;;;;;53.00;49.00;;;;;;;14.32;100.00;102534.41;2005945;71;33307;-76
2021/11/11 12:08:45;;;;;;;52.20;48.30;;;;;;;14.36;100.00;102534.19;2008061;71;32765;-75
2021/11/11 12:14:36;;;;;;;54.20;50.10;;;;;;;14.19;100.00;102516.16;2004276;71;32881;-74
2021/11/11 12:38:57;;;;;;;40.93;38.20;;;;;;;14.58;100.00;102485.39;2006203;71;32833;-75
2021/11/11 12:45:00;;;;;;;39.10;36.60;;;;;;;14.89;100.00;102473.74;1995301;71;32777;-75
2021/11/11 12:50:50;;;;;;;42.43;39.67;;;;;;;15.02;100.00;102458.39;2013533;71;32803;-76
2021/11/11 12:56:42;;;;;;;43.90;40.90;;;;;;;14.97;100.00;102455.02;2009832;71;32774;-75
2021/11/11 13:02:29;;;;;;;42.97;40.27;;;;;;;14.98;100.00;102440.47;2002116;71;32834;-75
2021/11/11 13:08:13;;;;;;;41.73;39.03;;;;;;;14.97;100.00;102424.23;2004410;71;33234;-75
2021/11/11 13:14:17;;;;;;;45.70;42.80;;;;;;;14.90;100.00;102419.47;1998507;71;32955;-75
2021/11/11 13:20:34;;;;;;;44.70;41.90;;;;;;;14.85;100.00;102413.86;2011427;71;32903;-75
2021/11/11 14:03:23;;;;;;;43.07;40.40;;;;;;;14.87;100.00;102350.64;2007611;71;33226;-75
2021/11/11 16:23:23;;;;;;;47.83;44.43;;;;;;;13.83;100.00;102304.13;2018527;71;32837;-71
2021/11/11 16:29:06;;;;;;;46.90;43.67;;;;;;;13.84;100.00;102297.44;2011342;70;33324;-79
2021/11/11 16:34:51;;;;;;;48.90;45.33;;;;;;;13.71;100.00;102305.47;2015443;71;33341;-73
2021/11/11 16:40:37;;;;;;;51.67;47.63;;;;;;;13.73;100.00;102297.12;2016742;71;33365;-79
2021/11/11 16:46:21;;;;;;;48.80;45.30;;;;;;;13.65;100.00;102289.23;2005856;71;32906;-73
2021/11/11 16:52:06;;;;;;;50.57;46.90;;;;;;;13.66;100.00;102276.95;1995518;71;32833;-78
2021/11/11 16:57:50;;;;;;;50.43;46.67;;;;;;;13.57;100.00;102282.77;2013377;71;32834;-78
2021/11/11 17:03:36;;;;;;;52.57;48.63;;;;;;;13.50;100.00;102281.63;2006272;71;32749;-79
2021/11/11 17:09:20;;;;;;;54.60;50.43;;;;;;;13.43;100.00;102281.58;2004185;71;32888;-77
2021/11/11 17:15:06;;;;;;;54.37;50.47;;;;;;;13.42;100.00;102282.69;2009658;71;32942;-80
2021/11/11 17:20:53;;;;;;;55.57;51.57;;;;;;;13.31;100.00;102278.97;2013223;71;33300;-78
2021/11/11 17:26:45;;;;;;;54.53;50.53;;;;;;;13.26;100.00;102280.36;2002610;71;32768;-71
2021/11/11 17:32:31;;;;;;;54.20;50.47;;;;;;;13.20;100.00;102278.08;1991497;71;32751;-75
2021/11/11 17:38:16;;;;;;;56.20;52.33;;;;;;;13.12;100.00;102287.50;2007696;71;33430;-77
2021/11/11 17:44:03;;;;;;;57.87;53.87;;;;;;;13.12;100.00;102289.73;2012328;71;32750;-75
2021/11/11 17:49:51;;;;;;;50.30;46.50;;;;;;;12.97;100.00;102293.75;2011390;71;33349;-75
2021/11/11 17:55:36;;;;;;;51.63;47.83;;;;;;;12.98;100.00;102300.17;2009460;71;32899;-73
2021/11/11 18:01:21;;;;;;;52.57;49.17;;;;;;;12.86;100.00;102295.33;2016538;71;32831;-71
2021/11/11 18:07:08;;;;;;;53.10;49.07;;;;;;;12.80;100.00;102309.77;2014901;71;32827;-75
2021/11/11 18:12:54;;;;;;;60.90;55.80;;;;;;;12.65;100.00;102306.30;2013023;71;33299;-77
2021/11/11 18:18:39;;;;;;;59.17;54.63;;;;;;;12.41;100.00;102312.45;1991792;71;33357;-70
2021/11/11 18:24:24;;;;;;;57.33;53.00;;;;;;;12.28;100.00;102324.27;2010163;71;33282;-75
2021/11/11 18:30:23;;;;;;;57.13;52.70;;;;;;;12.03;100.00;102321.19;2000955;71;32750;-75
2021/11/11 18:36:01;;;;;;;59.47;55.07;;;;;;;11.90;100.00;102317.94;2009916;70;32813;-70
2021/11/11 18:41:46;;;;;;;57.90;53.50;;;;;;;11.74;100.00;102319.69;2000708;71;32939;-76
2021/11/11 18:47:41;;;;;;;59.17;54.87;;;;;;;11.41;100.00;102310.28;2011487;71;33249;-75
2021/11/11 18:53:19;;;;;;;59.13;54.80;;;;;;;11.27;100.00;102320.08;2013370;71;32939;-74
2021/11/11 18:59:03;;;;;;;55.33;51.13;;;;;;;11.19;100.00;102323.28;2008076;71;33197;-76
2021/11/11 19:04:53;;;;;;;54.23;50.10;;;;;;;11.09;100.00;102311.14;2013211;71;32821;-70
2021/11/11 19:10:39;;;;;;;56.50;52.03;;;;;;;11.00;100.00;102316.82;2009513;71;32826;-74
2021/11/11 19:16:26;;;;;;;56.17;51.93;;;;;;;11.01;100.00;102320.75;2006364;71;32749;-71
2021/11/11 19:22:05;;;;;;;59.27;54.37;;;;;;;10.90;100.00;102319.75;2015246;71;33356;-72
2021/11/11 19:27:51;;;;;;;54.13;49.87;;;;;;;11.03;100.00;102322.75;2018606;71;32820;-72
2021/11/11 19:33:37;;;;;;;54.93;50.67;;;;;;;10.84;100.00;102307.39;2002719;71;32795;-68
2021/11/11 19:39:37;;;;;;;54.53;50.30;;;;;;;10.80;100.00;102296.48;2015707;71;33310;-71
2021/11/11 20:47:01;;;;;;;55.73;51.23;;;;;;;10.71;100.00;102211.28;2011641;71;32816;-71
2021/11/11 20:52:58;;;;;;;53.13;49.03;;;;;;;10.58;100.00;102206.60;2015142;71;30879;-72
2021/11/11 21:05:00;;;;;;;52.43;48.53;;;;;;;9.90;100.00;102200.62;1998671;71;32811;-71
2021/11/11 21:10:54;;;;;;;51.67;47.77;;;;;;;9.91;100.00;102182.88;2008159;71;32759;-70
2021/11/11 21:16:47;;;;;;;50.97;47.17;;;;;;;10.12;100.00;102168.28;2016755;71;33318;-74
2021/11/11 21:22:27;;;;;;;52.20;48.50;;;;;;;10.27;100.00;102177.48;2006455;71;33286;-72
2021/11/11 21:28:13;;;;;;;54.83;50.80;;;;;;;10.19;100.00;102168.98;1991562;71;30830;-73
2021/11/11 21:33:59;;;;;;;52.50;48.67;;;;;;;10.10;100.00;102176.01;2016837;71;33329;-70
2021/11/11 21:39:47;;;;;;;52.20;48.40;;;;;;;9.86;100.00;102177.23;2011750;70;32754;-72
2021/11/11 21:45:30;;;;;;;54.90;50.73;;;;;;;9.72;100.00;102188.31;1997318;71;32877;-74
2021/11/11 21:51:15;;;;;;;54.57;50.43;;;;;;;9.36;100.00;102179.82;2013709;71;33352;-72
2021/11/11 21:57:05;;;;;;;50.57;46.90;;;;;;;9.31;100.00;102172.77;2002892;71;32745;-71
2021/11/11 22:02:55;;;;;;;54.10;50.27;;;;;;;9.22;100.00;102176.47;1995267;71;32756;-71
2021/11/11 22:27:08;;;;;;;50.77;46.97;;;;;;;8.51;100.00;102154.06;2004638;71;32838;-72
2021/11/11 22:32:53;;;;;;;49.90;46.40;;;;;;;8.42;100.00;102144.95;2005892;70;32818;-70
2021/11/11 22:38:38;;;;;;;50.73;47.20;;;;;;;8.73;100.00;102151.50;2002457;71;32764;-72
2021/11/11 22:44:22;;;;;;;49.70;46.10;;;;;;;8.53;100.00;102145.48;2003831;71;32892;-72
2021/11/11 22:50:11;;;;;;;52.53;48.90;;;;;;;8.27;100.00;102159.21;1999101;71;32822;-73
2021/11/11 22:55:57;;;;;;;53.10;49.20;;;;;;;8.24;100.00;102165.23;2008358;71;32743;-72
2021/11/11 23:01:52;;;;;;;55.23;51.03;;;;;;;8.30;100.00;102160.71;2004552;71;32755;-72
2021/11/11 23:13:57;;;;;;;53.60;49.50;;;;;;;8.18;100.00;102156.48;2009454;71;33361;-73
2021/11/11 23:19:50;;;;;;;50.30;46.50;;;;;;;8.43;100.00;102140.53;2014911;71;32831;-72
2021/11/11 23:25:34;;;;;;;53.97;50.17;;;;;;;8.48;100.00;102131.52;2002497;71;32763;-72
2021/11/11 23:37:21;;;;;;;53.80;49.90;;;;;;;8.09;100.00;102110.31;2014750;71;32831;-73
2021/11/11 23:43:05;;;;;;;51.17;47.47;;;;;;;7.97;100.00;102101.69;1991477;71;32760;-73
2021/11/11 23:48:52;;;;;;;54.40;50.40;;;;;;;8.03;100.00;102099.38;2005759;71;32820;-73
